Time;durP1;ratioP1;P1;durP2;ratioP2;P2;SDS_P1;SDS_P2;PMS_P1;PMS_P2;Temp;Humidity;BMP_temperature;BMP_pressure;BME280_temperature;BME280_humidity;BME280_pressure;Samples;Min_cycle;Max_cycle;Signal;HPM_P1;HPM_P2
2021/06/07 00:02:23;;;;;;;5.53;3.70;;;11.20;90.00;;;;;;5043077;28;20434;-67
2021/06/07 00:04:50;;;;;;;8.80;4.07;;;11.40;86.20;;;;;;5042925;28;20179;-67
2021/06/07 00:07:17;;;;;;;8.18;6.35;;;11.60;87.60;;;;;;5042645;28;20467;-66
2021/06/07 00:09:44;;;;;;;8.43;4.95;;;11.60;86.40;;;;;;5044131;28;20017;-68
2021/06/07 00:12:15;;;;;;;8.27;4.53;;;11.80;86.40;;;;;;5043907;28;20437;-68
2021/06/07 00:14:43;;;;;;;7.45;5.35;;;11.80;85.70;;;;;;5029515;28;20028;-71
2021/06/07 00:17:10;;;;;;;4.68;3.08;;;11.90;84.50;;;;;;5046364;28;20032;-64
2021/06/07 00:19:39;;;;;;;7.38;3.35;;;12.00;83.80;;;;;;5046678;28;20096;-63
2021/06/07 00:22:07;;;;;;;6.30;2.55;;;12.30;83.50;;;;;;5045683;28;20079;-71
2021/06/07 00:24:34;;;;;;;3.97;2.90;;;12.40;82.00;;;;;;5044550;28;20029;-65
2021/06/07 00:27:02;;;;;;;4.03;3.05;;;12.50;80.50;;;;;;5045696;28;20128;-65
2021/06/07 00:29:29;;;;;;;6.68;2.92;;;12.70;80.60;;;;;;5046061;28;20029;-66
2021/06/07 00:31:56;;;;;;;6.15;3.40;;;12.90;79.60;;;;;;5044848;28;20025;-68
2021/06/07 00:34:23;;;;;;;3.97;2.35;;;13.10;78.50;;;;;;5045765;28;20055;-64
2021/06/07 00:36:50;;;;;;;4.43;2.58;;;13.20;75.90;;;;;;5045983;28;20052;-65
2021/06/07 00:39:17;;;;;;;4.00;2.58;;;13.40;75.80;;;;;;5046252;28;20035;-65
2021/06/07 00:41:47;;;;;;;4.45;2.80;;;13.50;76.10;;;;;;5045535;28;20024;-66
2021/06/07 00:44:20;;;;;;;4.00;2.53;;;13.70;76.40;;;;;;5043301;28;20033;-64
2021/06/07 00:46:48;;;;;;;3.95;2.75;;;13.80;74.40;;;;;;5045689;28;20747;-66
2021/06/07 00:49:15;;;;;;;2.72;2.13;;;14.00;73.10;;;;;;5045876;28;20037;-66
2021/06/07 00:51:44;;;;;;;3.65;2.22;;;14.00;72.10;;;;;;5045663;28;20028;-64
2021/06/07 00:54:12;;;;;;;4.72;2.03;;;14.20;73.30;;;;;;5045404;28;20562;-66
2021/06/07 00:56:40;;;;;;;4.07;2.03;;;14.10;73.00;;;;;;5045597;28;20025;-67
2021/06/07 00:59:07;;;;;;;3.05;1.88;;;14.20;73.30;;;;;;5045761;28;20032;-65
2021/06/07 01:01:34;;;;;;;4.10;2.00;;;14.40;72.80;;;;;;5027233;28;20083;-65
2021/06/07 01:04:01;;;;;;;4.32;1.90;;;14.60;70.50;;;;;;5028202;28;20021;-67
2021/06/07 01:06:29;;;;;;;4.03;1.75;;;14.80;69.10;;;;;;5029278;28;20026;-65
2021/06/07 01:08:57;;;;;;;5.22;1.80;;;14.90;69.50;;;;;;5026264;28;20032;-65
2021/06/07 01:11:25;;;;;;;3.63;1.73;;;14.90;69.70;;;;;;5029907;28;20021;-67
2021/06/07 01:13:53;;;;;;;2.08;1.38;;;14.90;70.50;;;;;;5033228;28;20087;-67
2021/06/07 01:16:21;;;;;;;3.05;1.85;;;15.20;70.60;;;;;;5034567;28;20037;-64
2021/06/07 01:18:49;;;;;;;3.75;1.98;;;15.30;67.70;;;;;;5029188;28;20025;-66
2021/06/07 01:21:25;;;;;;;3.08;2.15;;;15.40;68.60;;;;;;5029657;28;20572;-64
2021/06/07 01:23:53;;;;;;;3.60;2.00;;;15.60;65.80;;;;;;5032888;28;20029;-63
2021/06/07 01:26:22;;;;;;;3.53;1.90;;;15.70;65.90;;;;;;5031874;28;20022;-64
2021/06/07 01:28:50;;;;;;;3.10;1.65;;;15.70;64.30;;;;;;5031704;28;20024;-66
2021/06/07 01:31:18;;;;;;;2.80;1.60;;;15.80;64.30;;;;;;5031560;28;20458;-67
2021/06/07 01:33:48;;;;;;;2.83;1.52;;;15.90;64.00;;;;;;5033564;28;20078;-65
2021/06/07 01:36:15;;;;;;;3.53;1.67;;;16.10;63.30;;;;;;5027825;28;20088;-65
2021/06/07 01:38:42;;;;;;;3.53;1.65;;;16.20;64.00;;;;;;5033520;28;20033;-65
2021/06/07 01:41:13;;;;;;;4.95;1.73;;;16.40;63.70;;;;;;5036595;28;20480;-66
2021/06/07 01:43:41;;;;;;;4.68;1.85;;;16.40;62.60;;;;;;5032299;28;20116;-69
2021/06/07 01:46:08;;;;;;;3.90;1.90;;;16.50;64.00;;;;;;5031994;28;20105;-64
2021/06/07 01:48:35;;;;;;;4.25;1.67;;;16.50;63.80;;;;;;5032515;28;20044;-70
2021/06/07 01:51:06;;;;;;;5.05;2.20;;;16.50;64.30;;;;;;5036837;28;20028;-67
2021/06/07 01:53:33;;;;;;;6.32;2.50;;;16.70;64.40;;;;;;5033226;28;20021;-67
2021/06/07 01:56:04;;;;;;;3.85;2.60;;;16.80;64.30;;;;;;5033162;28;20075;-66
2021/06/07 01:58:32;;;;;;;5.80;3.15;;;16.90;63.70;;;;;;5030988;28;20014;-65
2021/06/07 02:01:02;;;;;;;4.55;2.53;;;17.00;63.20;;;;;;5032144;28;20082;-66
2021/06/07 02:03:29;;;;;;;6.85;2.67;;;17.00;62.30;;;;;;5032472;28;20041;-66
2021/06/07 02:06:01;;;;;;;6.13;2.38;;;17.10;62.40;;;;;;5034625;28;20080;-69
2021/06/07 02:08:31;;;;;;;5.70;2.30;;;17.20;63.00;;;;;;5033101;28;20079;-69
2021/06/07 02:11:06;;;;;;;3.67;1.83;;;17.40;62.60;;;;;;5032164;28;20024;-67
2021/06/07 02:13:33;;;;;;;3.15;2.30;;;17.40;60.80;;;;;;5031782;28;20473;-65
2021/06/07 02:16:21;;;;;;;3.53;2.53;;;17.30;61.50;;;;;;5036979;28;20079;-68
2021/06/07 02:18:49;;;;;;;3.72;2.88;;;17.50;61.40;;;;;;5032093;28;20504;-67
2021/06/07 02:21:19;;;;;;;5.20;2.50;;;17.60;60.80;;;;;;5032293;28;20526;-65
2021/06/07 02:23:47;;;;;;;4.30;2.15;;;17.80;59.80;;;;;;5035420;28;20025;-65
2021/06/07 02:26:14;;;;;;;2.60;2.05;;;17.80;59.50;;;;;;5034138;28;20027;-70
2021/06/07 02:28:51;;;;;;;4.78;2.28;;;17.90;60.10;;;;;;5033250;28;20395;-69
2021/06/07 02:31:20;;;;;;;3.95;1.98;;;18.10;60.40;;;;;;5031837;28;20747;-67
2021/06/07 02:33:54;;;;;;;3.80;2.03;;;18.10;59.10;;;;;;5033279;28;20017;-66
2021/06/07 02:36:23;;;;;;;3.28;1.95;;;18.20;59.80;;;;;;5030852;28;20909;-65
2021/06/07 02:38:50;;;;;;;4.07;1.95;;;18.30;60.20;;;;;;5033129;28;20032;-65
2021/06/07 02:41:19;;;;;;;4.07;1.95;;;18.30;60.20;;;;;;5034297;28;20021;-67
2021/06/07 02:43:47;;;;;;;3.13;2.10;;;18.30;60.00;;;;;;5035941;28;20175;-66
2021/06/07 02:46:14;;;;;;;3.67;2.00;;;18.40;59.40;;;;;;5034093;28;20497;-66
2021/06/07 02:48:41;;;;;;;5.63;2.28;;;18.40;58.30;;;;;;5031837;28;20079;-67
2021/06/07 02:51:08;;;;;;;6.47;1.95;;;18.30;58.50;;;;;;5031397;28;20032;-67
2021/06/07 02:53:35;;;;;;;3.38;2.13;;;18.20;59.30;;;;;;5034676;28;20022;-66
2021/06/07 02:56:03;;;;;;;3.60;2.50;;;18.30;59.10;;;;;;5033276;28;20025;-69
2021/06/07 02:58:30;;;;;;;9.77;6.15;;;18.30;60.10;;;;;;5033484;28;20053;-68
2021/06/07 03:01:00;;;;;;;3.92;2.88;;;18.50;60.50;;;;;;5035317;28;20040;-66
2021/06/07 03:03:27;;;;;;;4.95;1.60;;;18.50;60.50;;;;;;5032382;28;20072;-66
2021/06/07 03:05:58;;;;;;;6.60;6.00;;;18.50;59.90;;;;;;5034010;28;20037;-65
2021/06/07 03:08:28;;;;;;;2.72;2.20;;;18.70;59.60;;;;;;5032993;28;20033;-68
2021/06/07 03:10:59;;;;;;;4.53;1.13;;;18.80;59.20;;;;;;5034393;28;20364;-67
2021/06/07 03:13:27;;;;;;;2.90;1.40;;;18.90;59.80;;;;;;5032516;28;20079;-66
2021/06/07 03:15:56;;;;;;;2.85;1.20;;;19.10;58.80;;;;;;5031467;28;20116;-67
2021/06/07 03:18:24;;;;;;;1.40;1.00;;;19.10;59.40;;;;;;5032674;28;20029;-65
2021/06/07 03:20:51;;;;;;;3.20;1.25;;;19.20;57.90;;;;;;5031867;28;20018;-67
2021/06/07 03:23:24;;;;;;;1.52;1.20;;;19.10;58.10;;;;;;5031917;28;20800;-66
2021/06/07 03:25:52;;;;;;;2.08;1.05;;;19.10;58.20;;;;;;5030908;28;20021;-66
2021/06/07 03:28:20;;;;;;;15.15;10.02;;;19.20;58.60;;;;;;5030748;28;20433;-66
2021/06/07 03:30:49;;;;;;;3.72;2.55;;;19.30;58.80;;;;;;5032322;28;20105;-65
2021/06/07 03:33:16;;;;;;;5.15;2.90;;;19.30;57.90;;;;;;5031775;28;20455;-66
2021/06/07 03:35:45;;;;;;;3.38;1.45;;;19.20;58.30;;;;;;5032084;28;20021;-65
2021/06/07 03:38:14;;;;;;;2.85;1.10;;;19.20;58.60;;;;;;5035997;28;20429;-65
2021/06/07 03:40:48;;;;;;;3.40;0.85;;;19.30;57.80;;;;;;5033175;28;20037;-69
2021/06/07 03:43:16;;;;;;;1.38;1.23;;;19.40;58.00;;;;;;5022470;28;20514;-67
2021/06/07 03:45:43;;;;;;;3.30;1.15;;;19.50;58.20;;;;;;5033597;28;20022;-64
2021/06/07 03:48:10;;;;;;;2.20;1.10;;;19.60;57.30;;;;;;5032284;28;20051;-68
2021/06/07 03:50:38;;;;;;;4.03;1.15;;;19.80;57.60;;;;;;5028438;28;20025;-66
2021/06/07 03:53:07;;;;;;;2.58;1.02;;;19.70;57.80;;;;;;5032728;28;20085;-66
2021/06/07 03:55:35;;;;;;;3.38;1.20;;;19.70;58.10;;;;;;5032336;28;20480;-66
2021/06/07 03:58:03;;;;;;;2.45;1.00;;;19.80;57.80;;;;;;5030778;28;20542;-65
2021/06/07 04:00:33;;;;;;;3.25;0.80;;;19.70;58.70;;;;;;5032841;28;20021;-68
2021/06/07 04:03:02;;;;;;;3.03;0.90;;;19.80;57.40;;;;;;5028749;28;20034;-70
2021/06/07 04:05:29;;;;;;;2.58;0.98;;;19.80;57.00;;;;;;5027670;28;20041;-69
2021/06/07 04:07:56;;;;;;;1.55;0.95;;;19.80;56.70;;;;;;5032427;28;20080;-64
2021/06/07 04:10:25;;;;;;;1.92;1.02;;;19.90;58.20;;;;;;5031157;28;20021;-70
2021/06/07 04:12:53;;;;;;;2.35;0.82;;;19.90;57.20;;;;;;5034880;28;20132;-69
2021/06/07 04:15:24;;;;;;;1.73;0.88;;;19.90;57.80;;;;;;5030242;28;20091;-69
2021/06/07 04:17:52;;;;;;;1.60;0.90;;;19.70;57.80;;;;;;5031862;28;20035;-65
2021/06/07 04:20:21;;;;;;;2.05;0.98;;;19.60;57.40;;;;;;5028662;28;20025;-65
2021/06/07 04:22:48;;;;;;;1.92;0.90;;;19.50;57.40;;;;;;5035100;28;20429;-64
2021/06/07 04:25:18;;;;;;;1.55;0.85;;;19.30;58.10;;;;;;5030989;28;20373;-65
2021/06/07 04:27:46;;;;;;;7.55;5.82;;;19.30;58.60;;;;;;5030164;28;20048;-64
2021/06/07 04:30:17;;;;;;;4.07;2.60;;;19.20;59.10;;;;;;5030292;28;20029;-63
2021/06/07 04:32:46;;;;;;;4.28;1.65;;;19.20;58.80;;;;;;5023939;28;20188;-65
2021/06/07 04:35:15;;;;;;;2.63;1.58;;;19.20;59.80;;;;;;5029695;28;20041;-65
2021/06/07 04:37:50;;;;;;;4.82;3.50;;;19.20;58.80;;;;;;5030915;28;20044;-66
2021/06/07 04:40:20;;;;;;;3.33;2.20;;;19.20;59.70;;;;;;5027609;28;20032;-65
2021/06/07 04:42:47;;;;;;;4.40;2.65;;;19.30;59.30;;;;;;5029831;28;20162;-65
2021/06/07 04:45:15;;;;;;;3.42;1.90;;;19.40;58.40;;;;;;5027474;28;20045;-64
2021/06/07 04:47:42;;;;;;;3.60;1.88;;;19.30;58.90;;;;;;5027668;28;20033;-65
2021/06/07 04:50:11;;;;;;;4.38;1.70;;;19.50;58.80;;;;;;5027936;28;20021;-64
2021/06/07 04:55:27;;;;;;;4.68;4.15;;;19.40;59.70;;;;;;5031951;28;20048;-68
2021/06/07 04:57:54;;;;;;;4.03;2.25;;;19.40;59.00;;;;;;5031097;28;20079;-67
2021/06/07 05:00:23;;;;;;;4.38;3.08;;;19.50;59.60;;;;;;5029568;28;20419;-65
2021/06/07 05:02:51;;;;;;;6.43;4.57;;;19.70;58.80;;;;;;5028797;28;20021;-67
2021/06/07 05:05:19;;;;;;;2.65;1.73;;;19.80;57.80;;;;;;5033332;28;20039;-66
2021/06/07 05:07:46;;;;;;;2.92;1.92;;;19.70;58.40;;;;;;5030887;28;20092;-64
2021/06/07 05:10:14;;;;;;;5.38;1.83;;;19.80;58.60;;;;;;5031843;28;20032;-66
2021/06/07 05:12:41;;;;;;;5.43;2.90;;;20.00;57.80;;;;;;5031543;28;20021;-67
2021/06/07 05:15:10;;;;;;;4.75;2.10;;;20.30;57.20;;;;;;5036096;28;20064;-68
2021/06/07 05:17:38;;;;;;;2.17;1.73;;;20.60;56.30;;;;;;5025598;28;20642;-64
2021/06/07 05:20:10;;;;;;;4.60;1.90;;;20.80;55.40;;;;;;5035102;28;20483;-67
2021/06/07 05:22:53;;;;;;;5.40;2.55;;;20.90;55.00;;;;;;4858512;28;10000755;-63
2021/06/07 05:25:22;;;;;;;7.78;2.30;;;21.00;54.80;;;;;;5043827;28;20265;-66
2021/06/07 05:27:50;;;;;;;2.72;1.63;;;21.10;54.00;;;;;;5038180;28;20384;-65
2021/06/07 05:30:19;;;;;;;5.60;1.48;;;21.00;54.70;;;;;;5035042;28;20148;-64
2021/06/07 05:32:47;;;;;;;3.30;1.67;;;21.00;54.50;;;;;;5036367;28;20115;-64
2021/06/07 05:35:16;;;;;;;3.13;1.42;;;21.20;54.50;;;;;;5048531;28;20037;-64
2021/06/07 05:37:44;;;;;;;1.90;1.00;;;21.40;54.00;;;;;;5041757;28;20035;-68
2021/06/07 05:40:12;;;;;;;2.55;1.33;;;21.30;54.00;;;;;;5033877;28;20055;-66
2021/06/07 05:42:39;;;;;;;1.15;0.90;;;21.20;53.80;;;;;;5034860;28;20036;-64
2021/06/07 05:45:09;;;;;;;2.03;1.20;;;21.10;54.00;;;;;;5045977;28;20061;-65
2021/06/07 05:47:37;;;;;;;2.80;1.10;;;21.00;53.90;;;;;;5033431;28;20029;-64
2021/06/07 05:50:06;;;;;;;2.08;1.20;;;20.70;54.80;;;;;;5028314;28;20020;-65
2021/06/07 05:52:33;;;;;;;2.78;1.20;;;20.20;56.10;;;;;;5035808;28;20388;-67
2021/06/07 05:55:00;;;;;;;1.88;1.55;;;19.60;58.00;;;;;;5044124;28;20060;-64
2021/06/07 05:57:27;;;;;;;4.15;3.50;;;19.20;59.20;;;;;;5040880;28;20036;-67
2021/06/07 05:59:54;;;;;;;4.63;2.03;;;18.90;60.80;;;;;;5035158;28;20154;-69
2021/06/07 06:02:22;;;;;;;2.95;1.60;;;18.60;61.40;;;;;;5040105;28;20033;-66
2021/06/07 06:04:49;;;;;;;2.15;0.90;;;18.40;62.20;;;;;;5031223;28;20044;-65
2021/06/07 06:07:16;;;;;;;1.67;0.82;;;18.30;61.70;;;;;;5039295;28;20013;-64
2021/06/07 06:09:42;;;;;;;3.90;0.70;;;18.10;61.90;;;;;;5039229;28;20032;-65
2021/06/07 06:12:10;;;;;;;2.47;1.00;;;18.00;62.40;;;;;;5043326;28;20025;-65
2021/06/07 06:14:37;;;;;;;2.45;1.00;;;17.90;62.50;;;;;;5035077;28;20021;-65
2021/06/07 06:17:05;;;;;;;3.40;0.80;;;17.80;62.20;;;;;;5041429;28;20023;-65
2021/06/07 06:19:33;;;;;;;4.10;1.05;;;17.70;62.20;;;;;;5038856;28;20164;-66
2021/06/07 06:22:05;;;;;;;1.65;0.70;;;17.50;62.60;;;;;;5043129;28;20549;-63
2021/06/07 06:24:33;;;;;;;4.40;1.10;;;17.40;62.10;;;;;;5033854;28;20076;-66
2021/06/07 06:27:01;;;;;;;2.63;0.60;;;17.20;62.60;;;;;;5037742;28;20033;-65
2021/06/07 06:29:28;;;;;;;1.10;0.88;;;17.10;62.90;;;;;;5034457;28;20018;-64
2021/06/07 06:31:55;;;;;;;1.80;0.80;;;16.90;63.30;;;;;;5024184;28;20030;-65
2021/06/07 06:34:22;;;;;;;2.08;1.00;;;16.80;64.00;;;;;;5037617;28;20597;-63
2021/06/07 06:36:49;;;;;;;1.38;0.70;;;16.60;64.40;;;;;;5034491;28;20029;-64
2021/06/07 06:39:16;;;;;;;2.40;0.80;;;16.50;65.30;;;;;;5041995;28;20120;-65
2021/06/07 06:41:43;;;;;;;1.75;1.02;;;16.30;65.80;;;;;;5044208;28;20013;-64
2021/06/07 06:44:10;;;;;;;2.50;1.42;;;16.20;66.40;;;;;;5037282;28;20454;-65
2021/06/07 06:46:37;;;;;;;3.97;1.50;;;16.00;67.60;;;;;;5040656;28;20029;-63
2021/06/07 06:49:05;;;;;;;4.40;1.75;;;15.90;68.90;;;;;;5028760;28;20037;-68
2021/06/07 06:51:32;;;;;;;5.10;3.47;;;15.70;69.80;;;;;;5033288;28;20456;-64
2021/06/07 06:53:59;;;;;;;11.95;5.95;;;15.40;70.90;;;;;;5041971;28;20074;-65
2021/06/07 06:56:26;;;;;;;4.15;2.88;;;15.20;71.80;;;;;;5033590;28;20025;-66
2021/06/07 06:58:53;;;;;;;10.90;7.43;;;15.00;72.50;;;;;;5033196;28;20029;-64
2021/06/07 07:01:20;;;;;;;5.95;4.13;;;14.90;72.70;;;;;;5042925;28;20598;-63
2021/06/07 07:06:25;;;;;;;4.78;2.15;;;14.60;73.90;;;;;;4994974;28;20046;-63
2021/06/07 07:08:53;;;;;;;2.63;1.48;;;14.50;74.80;;;;;;5002012;28;20152;-63
2021/06/07 07:11:21;;;;;;;4.68;1.88;;;14.40;74.50;;;;;;4996158;28;20025;-63
2021/06/07 07:13:48;;;;;;;3.33;1.52;;;14.30;75.10;;;;;;5005191;28;20025;-64
2021/06/07 07:16:15;;;;;;;4.13;2.30;;;14.30;76.00;;;;;;5007549;28;20125;-64
2021/06/07 07:18:42;;;;;;;4.38;1.88;;;14.20;75.50;;;;;;5001751;28;20021;-64
2021/06/07 07:21:09;;;;;;;3.25;1.45;;;14.10;76.30;;;;;;5005050;28;20120;-67
2021/06/07 07:23:36;;;;;;;2.58;1.60;;;14.10;76.60;;;;;;5000021;28;20100;-65
2021/06/07 07:26:03;;;;;;;2.90;1.85;;;14.00;77.10;;;;;;4999451;28;20133;-64
2021/06/07 07:28:30;;;;;;;5.20;2.00;;;13.90;77.70;;;;;;5001688;28;20018;-65
2021/06/07 07:30:57;;;;;;;4.38;2.20;;;13.90;77.80;;;;;;5006212;28;20026;-68
2021/06/07 07:33:24;;;;;;;9.98;6.20;;;13.80;79.10;;;;;;5003412;28;20028;-67
2021/06/07 07:35:51;;;;;;;6.45;3.10;;;13.80;79.00;;;;;;5003350;28;20026;-65
2021/06/07 07:38:18;;;;;;;4.65;2.42;;;13.70;79.70;;;;;;5006042;28;20026;-69
2021/06/07 07:40:46;;;;;;;7.78;3.30;;;13.60;80.30;;;;;;4991889;28;20112;-66
2021/06/07 07:43:13;;;;;;;7.00;2.50;;;13.50;80.70;;;;;;5006016;28;20806;-69
2021/06/07 07:45:40;;;;;;;7.25;3.10;;;13.40;81.40;;;;;;4993506;28;20485;-70
2021/06/07 07:48:08;;;;;;;5.18;2.90;;;13.30;81.40;;;;;;5005172;28;20072;-67
2021/06/07 07:50:37;;;;;;;4.43;2.85;;;13.30;81.80;;;;;;4998054;28;20398;-68
2021/06/07 07:53:05;;;;;;;4.38;3.00;;;13.20;81.50;;;;;;5003809;28;20034;-68
2021/06/07 07:55:33;;;;;;;6.95;3.75;;;13.20;82.20;;;;;;5003923;28;20137;-70
2021/06/07 07:58:04;;;;;;;10.23;3.03;;;13.10;82.30;;;;;;5000578;28;20037;-64
2021/06/07 08:00:32;;;;;;;5.95;3.20;;;13.10;82.60;;;;;;5005096;28;20108;-64
2021/06/07 08:03:00;;;;;;;6.50;3.03;;;13.00;83.00;;;;;;5005725;28;20022;-70
2021/06/07 08:05:28;;;;;;;6.05;2.95;;;12.90;83.40;;;;;;5004200;28;20201;-64
2021/06/07 08:07:55;;;;;;;9.23;3.92;;;12.80;83.30;;;;;;5003361;28;20014;-64
2021/06/07 08:10:22;;;;;;;8.70;3.70;;;12.80;83.80;;;;;;4997944;28;20033;-64
2021/06/07 08:12:49;;;;;;;6.38;3.60;;;12.70;83.70;;;;;;4998293;28;20022;-66
2021/06/07 08:15:17;;;;;;;6.38;3.00;;;12.70;83.50;;;;;;5003864;28;20026;-64
2021/06/07 08:17:44;;;;;;;4.75;3.53;;;12.60;84.30;;;;;;5004336;28;20140;-68
2021/06/07 08:20:15;;;;;;;9.07;5.22;;;12.50;84.90;;;;;;5004801;28;20774;-67
2021/06/07 08:22:43;;;;;;;5.50;3.63;;;12.40;85.20;;;;;;5002434;28;20810;-64
2021/06/07 08:25:12;;;;;;;5.03;4.13;;;12.30;85.20;;;;;;5005089;28;20052;-67
2021/06/07 08:27:39;;;;;;;6.72;5.43;;;12.30;85.60;;;;;;5003426;28;20030;-64
2021/06/07 08:30:08;;;;;;;7.00;5.00;;;12.20;85.60;;;;;;5004180;28;20041;-66
2021/06/07 08:32:36;;;;;;;5.53;2.88;;;12.20;85.40;;;;;;5004743;28;20061;-63
2021/06/07 08:35:05;;;;;;;5.57;3.50;;;12.20;85.80;;;;;;5005268;28;20030;-65
2021/06/07 08:37:32;;;;;;;6.35;3.25;;;12.20;85.80;;;;;;5005358;28;20374;-67
2021/06/07 08:39:59;;;;;;;6.18;3.47;;;12.10;86.00;;;;;;5002810;28;20030;-65
2021/06/07 08:42:27;;;;;;;6.45;3.08;;;12.10;86.20;;;;;;5001296;28;20052;-67
2021/06/07 08:44:54;;;;;;;6.90;3.63;;;12.10;86.70;;;;;;4992334;28;20491;-63
2021/06/07 08:47:22;;;;;;;5.40;2.90;;;12.00;86.90;;;;;;4995514;28;20029;-65
2021/06/07 08:49:49;;;;;;;8.35;3.95;;;12.10;86.60;;;;;;5000860;28;20524;-63
2021/06/07 08:52:18;;;;;;;6.75;3.25;;;12.00;86.50;;;;;;4993888;28;20022;-63
2021/06/07 08:54:47;;;;;;;8.43;3.65;;;11.90;86.90;;;;;;4992989;28;20030;-64
2021/06/07 08:57:14;;;;;;;4.70;2.90;;;11.90;87.00;;;;;;4992030;28;20080;-62
2021/06/07 08:59:41;;;;;;;8.77;3.55;;;11.80;87.40;;;;;;4990250;28;20030;-66
2021/06/07 09:02:09;;;;;;;6.90;3.55;;;11.80;88.00;;;;;;4991363;28;20524;-69
2021/06/07 09:04:56;;;;;;;7.80;4.32;;;11.80;88.00;;;;;;4994439;28;20042;-66
2021/06/07 09:07:23;;;;;;;8.05;3.97;;;11.70;88.00;;;;;;4996418;28;20381;-71
2021/06/07 09:10:11;;;;;;;4.93;3.38;;;11.70;88.70;;;;;;4991519;28;20660;-65
2021/06/07 09:12:42;;;;;;;4.57;3.30;;;11.60;88.60;;;;;;4992169;28;20250;-66
2021/06/07 09:15:13;;;;;;;9.63;3.92;;;11.50;89.20;;;;;;4994759;28;20329;-65
2021/06/07 09:17:46;;;;;;;6.28;4.13;;;11.40;89.60;;;;;;4993659;28;20026;-65
2021/06/07 09:20:19;;;;;;;6.55;3.50;;;11.30;90.10;;;;;;4990262;28;20615;-65
2021/06/07 09:23:16;;;;;;;5.85;4.65;;;11.20;90.20;;;;;;4988581;28;20092;-68
2021/06/07 09:25:47;;;;;;;7.93;3.85;;;11.30;90.10;;;;;;4990835;28;20076;-66
2021/06/07 09:28:23;;;;;;;5.28;3.67;;;11.30;90.20;;;;;;4994573;28;20029;-66
2021/06/07 09:31:02;;;;;;;5.93;4.07;;;11.30;89.90;;;;;;4995009;28;20479;-66
2021/06/07 09:33:32;;;;;;;6.05;3.83;;;11.30;89.80;;;;;;4992646;28;20421;-66
2021/06/07 09:36:27;;;;;;;7.15;4.57;;;11.30;89.20;;;;;;4999518;28;20072;-66
2021/06/07 09:39:19;;;;;;;8.95;4.80;;;11.20;89.70;;;;;;4994932;28;20061;-66
2021/06/07 09:42:08;;;;;;;9.35;5.20;;;11.10;90.10;;;;;;4992873;28;20041;-65
2021/06/07 09:44:35;;;;;;;6.68;5.05;;;11.10;90.80;;;;;;4994668;28;20041;-66
2021/06/07 09:47:10;;;;;;;9.68;5.28;;;11.10;90.70;;;;;;5001427;28;20026;-66
2021/06/07 09:49:44;;;;;;;7.85;5.35;;;11.00;90.90;;;;;;5001127;28;20033;-67
2021/06/07 09:52:27;;;;;;;6.97;5.05;;;11.00;91.00;;;;;;5001001;28;20026;-64
2021/06/07 09:55:12;;;;;;;8.25;5.60;;;11.00;90.70;;;;;;4994995;28;20715;-67
2021/06/07 09:57:49;;;;;;;8.02;5.40;;;11.00;90.50;;;;;;4997069;28;20053;-68
2021/06/07 10:00:35;;;;;;;8.82;5.65;;;10.90;91.00;;;;;;5000792;28;20030;-65
2021/06/07 10:03:27;;;;;;;7.13;5.35;;;10.80;91.30;;;;;;5004252;28;20041;-63
2021/06/07 10:06:14;;;;;;;8.88;5.10;;;10.80;91.60;;;;;;5004013;28;20088;-68
2021/06/07 10:08:43;;;;;;;10.32;5.55;;;10.60;91.50;;;;;;5006402;28;20072;-67
2021/06/07 10:11:37;;;;;;;10.20;5.43;;;10.50;92.00;;;;;;5004599;28;20513;-66
2021/06/07 10:14:08;;;;;;;;;;;10.40;92.40;;;;;;4998913;28;20030;-64
2021/06/07 10:16:36;;;;;;;10.15;7.35;;;10.20;92.60;;;;;;4987501;28;19913;-63
2021/06/07 10:19:07;;;;;;;20.25;13.25;;;10.10;92.70;;;;;;5006008;28;20026;-66
2021/06/07 10:21:34;;;;;;;12.32;9.63;;;10.10;92.90;;;;;;5002003;28;20037;-64
2021/06/07 10:24:01;;;;;;;13.75;10.98;;;10.10;93.30;;;;;;5006938;28;20056;-65
2021/06/07 10:26:28;;;;;;;16.30;9.80;;;10.20;93.70;;;;;;5005383;28;20736;-64
2021/06/07 10:28:56;;;;;;;13.98;9.88;;;10.20;93.80;;;;;;5003754;28;20036;-67
2021/06/07 10:31:25;;;;;;;17.00;10.88;;;10.30;93.70;;;;;;5003032;28;20105;-64
2021/06/07 10:34:10;;;;;;;14.45;10.10;;;10.40;93.70;;;;;;5004038;28;20018;-65
2021/06/07 10:36:46;;;;;;;15.18;9.10;;;10.30;93.30;;;;;;5004545;28;20057;-64
2021/06/07 10:39:23;;;;;;;15.30;9.07;;;10.30;93.40;;;;;;5005168;28;20030;-66
2021/06/07 10:42:10;;;;;;;12.50;7.78;;;10.30;93.40;;;;;;5003233;28;20428;-64
2021/06/07 10:44:43;;;;;;;13.35;8.52;;;10.40;93.70;;;;;;5005164;28;20026;-67
2021/06/07 10:47:21;;;;;;;11.68;7.93;;;10.30;93.70;;;;;;5003579;28;20026;-65
2021/06/07 10:49:57;;;;;;;13.07;8.93;;;10.30;93.80;;;;;;4999664;28;20539;-68
2021/06/07 10:52:27;;;;;;;12.43;8.68;;;10.20;94.10;;;;;;4999557;28;20022;-65
2021/06/07 10:55:04;;;;;;;15.55;10.90;;;10.20;94.30;;;;;;5001673;28;20032;-66
2021/06/07 10:57:36;;;;;;;17.50;11.85;;;10.10;94.50;;;;;;5005515;28;20021;-65
2021/06/07 11:00:22;;;;;;;15.20;11.55;;;10.10;94.50;;;;;;5005661;28;20036;-65
2021/06/07 11:02:54;;;;;;;18.67;11.85;;;10.00;94.50;;;;;;5004123;28;20101;-66
2021/06/07 11:05:32;;;;;;;20.20;15.23;;;9.90;94.60;;;;;;5000702;28;20049;-67
2021/06/07 11:08:29;;;;;;;16.40;12.93;;;9.90;95.00;;;;;;4983208;28;20495;-66
2021/06/07 11:11:08;;;;;;;20.58;15.40;;;9.90;95.00;;;;;;5002515;28;20603;-65
2021/06/07 11:13:54;;;;;;;18.83;14.13;;;9.90;95.30;;;;;;4998964;28;20034;-65
2021/06/07 11:16:28;;;;;;;20.50;14.18;;;9.90;95.30;;;;;;5003828;28;20040;-66
2021/06/07 11:19:11;;;;;;;19.70;13.38;;;9.80;95.50;;;;;;5003909;28;20072;-67
2021/06/07 11:21:45;;;;;;;;;;;9.80;95.70;;;;;;5008189;28;20144;-67
2021/06/07 11:24:38;;;;;;;20.33;14.27;;;9.80;95.80;;;;;;5004814;28;19936;-68
2021/06/07 11:27:07;;;;;;;19.33;14.52;;;9.80;96.00;;;;;;5002909;28;20044;-66
2021/06/07 11:29:35;;;;;;;17.50;14.52;;;9.80;96.00;;;;;;5006084;28;20038;-66
2021/06/07 11:32:11;;;;;;;24.42;17.05;;;9.80;95.90;;;;;;5003308;28;20022;-65
2021/06/07 11:34:38;;;;;;;21.23;14.82;;;9.70;95.70;;;;;;5004066;28;20485;-66
2021/06/07 11:37:07;;;;;;;18.10;13.88;;;9.70;95.90;;;;;;5004640;28;20037;-68
2021/06/07 11:39:43;;;;;;;16.30;11.73;;;9.80;96.00;;;;;;4998416;28;20034;-66
2021/06/07 11:42:14;;;;;;;15.00;10.15;;;9.80;95.70;;;;;;5000772;28;20515;-66
2021/06/07 11:47:11;;;;;;;7.88;5.80;;;9.90;94.30;;;;;;5001589;28;20096;-67
2021/06/07 11:49:58;;;;;;;10.57;5.60;;;10.00;93.70;;;;;;5002652;28;20322;-66
2021/06/07 11:52:35;;;;;;;9.90;5.38;;;10.00;93.40;;;;;;4986261;28;20048;-66
2021/06/07 11:55:20;;;;;;;6.90;5.93;;;10.00;92.90;;;;;;5003674;28;20030;-67
2021/06/07 11:57:49;;;;;;;7.05;6.20;;;10.00;92.80;;;;;;4997876;28;20034;-66
2021/06/07 12:00:19;;;;;;;10.10;7.07;;;9.90;92.90;;;;;;5000331;28;20033;-67
2021/06/07 12:02:46;;;;;;;9.15;6.60;;;9.80;93.00;;;;;;4999981;28;20560;-67
2021/06/07 12:05:17;;;;;;;8.90;6.28;;;9.70;93.20;;;;;;4999123;28;20042;-65
2021/06/07 12:07:47;;;;;;;8.35;6.22;;;9.70;93.40;;;;;;4998153;28;20030;-66
2021/06/07 12:10:18;;;;;;;9.82;7.03;;;9.60;93.60;;;;;;4998934;28;20029;-66
2021/06/07 12:12:45;;;;;;;8.00;7.20;;;9.60;93.60;;;;;;4655514;28;10000299;-64
2021/06/07 12:15:14;;;;;;;10.98;7.32;;;9.60;93.80;;;;;;4999474;28;20268;-67
2021/06/07 12:17:43;;;;;;;11.77;7.53;;;9.70;93.80;;;;;;5000602;28;20030;-67
2021/06/07 12:20:11;;;;;;;11.75;8.15;;;9.80;93.70;;;;;;4999112;28;20068;-67
2021/06/07 12:22:50;;;;;;;9.38;7.60;;;9.80;93.40;;;;;;4995126;28;20121;-67
2021/06/07 12:30:46;;;;;;;10.25;7.15;;;9.70;94.00;;;;;;5002624;28;20033;-66
2021/06/07 12:33:13;;;;;;;10.15;7.40;;;9.60;94.00;;;;;;4993523;28;20536;-66
2021/06/07 12:35:40;;;;;;;12.40;6.63;;;9.50;94.30;;;;;;5002287;28;20046;-66
2021/06/07 12:38:11;;;;;;;9.57;6.82;;;9.30;94.50;;;;;;5002492;28;20034;-66
2021/06/07 12:40:41;;;;;;;8.88;6.80;;;9.30;94.70;;;;;;5002565;28;20474;-68
2021/06/07 12:43:07;;;;;;;12.38;7.80;;;9.20;94.90;;;;;;5002250;28;20744;-67
2021/06/07 12:45:49;;;;;;;9.98;7.72;;;9.10;95.10;;;;;;5002570;28;20026;-65
2021/06/07 12:48:40;;;;;;;10.20;7.30;;;9.10;95.30;;;;;;4998002;28;20022;-67
2021/06/07 12:51:13;;;;;;;11.35;7.60;;;9.10;95.50;;;;;;5002382;28;20431;-67
2021/06/07 12:53:48;;;;;;;11.20;7.45;;;9.00;95.60;;;;;;5002157;28;20108;-67
2021/06/07 12:56:22;;;;;;;9.27;7.65;;;8.90;95.60;;;;;;5002571;28;20030;-68
2021/06/07 12:58:57;;;;;;;9.35;7.70;;;9.00;95.40;;;;;;5000244;28;20454;-68
2021/06/07 13:01:47;;;;;;;8.20;7.18;;;8.90;95.30;;;;;;5001916;28;20025;-68
2021/06/07 13:04:36;;;;;;;9.27;7.28;;;9.00;95.30;;;;;;5002403;28;20072;-67
2021/06/07 13:07:15;;;;;;;10.48;7.07;;;9.00;95.20;;;;;;4998653;28;20042;-67
2021/06/07 13:09:44;;;;;;;10.25;6.90;;;9.00;95.10;;;;;;4996372;28;20136;-69
2021/06/07 13:12:24;;;;;;;9.48;6.18;;;8.90;95.00;;;;;;5002027;28;20424;-67
2021/06/07 13:14:55;;;;;;;10.05;6.78;;;8.90;94.90;;;;;;4995143;28;20030;-66
2021/06/07 13:17:23;;;;;;;9.27;7.45;;;8.90;95.00;;;;;;4997142;28;20034;-66